Time;durP1;ratioP1;P1;durP2;ratioP2;P2;SDS_P1;SDS_P2;PMS_P1;PMS_P2;Temp;Humidity;BMP_temperature;BMP_pressure;BME280_temperature;BME280_humidity;BME280_pressure;Samples;Min_cycle;Max_cycle;Signal;HPM_P1;HPM_P2
2024/01/09 00:01:44;;;;;;;13.50;9.13;;;;;;;-6.18;100.00;96889.06;7397244;19;20364;-95
2024/01/09 00:04:28;;;;;;;6.83;5.23;;;;;;;-5.25;100.00;97021.16;7396899;19;20884;-94
2024/01/09 00:07:10;;;;;;;15.40;8.57;;;;;;;-5.82;100.00;96939.34;7396734;19;20361;-94
2024/01/09 00:09:53;;;;;;;11.53;7.33;;;;;;;-5.31;100.00;97021.91;7396712;19;20385;-93
2024/01/09 00:12:35;;;;;;;13.10;8.50;;;;;;;-5.25;100.00;97017.81;7396529;19;20401;-92
2024/01/09 00:15:17;;;;;;;11.77;7.37;;;;;;;-6.21;100.00;96873.28;7396100;19;20368;-93
2024/01/09 00:17:59;;;;;;;16.83;8.63;;;;;;;-5.74;100.00;96952.81;7393957;19;20372;-95
2024/01/09 00:20:43;;;;;;;12.17;7.60;;;;;;;-5.40;100.00;96995.63;7397663;19;20369;-93
2024/01/09 00:23:30;;;;;;;16.73;9.23;;;;;;;-5.78;100.00;96961.84;7394044;19;20534;-94
2024/01/09 00:26:12;;;;;;;13.50;10.17;;;;;;;-5.93;100.00;96918.41;7396163;19;20368;-93
2024/01/09 00:28:53;;;;;;;13.37;7.70;;;;;;;-6.01;100.00;96913.41;7396547;19;20381;-94
2024/01/09 00:31:35;;;;;;;12.90;8.80;;;;;;;-6.03;100.00;96899.25;7396512;19;20675;-92
2024/01/09 00:34:17;;;;;;;11.37;9.00;;;;;;;-7.01;100.00;96737.06;7396048;19;20493;-93
2024/01/09 00:36:58;;;;;;;7.20;6.50;;;;;;;-5.54;100.00;96975.22;7396493;19;20360;-95
2024/01/09 00:39:41;;;;;;;12.73;8.07;;;;;;;-5.37;100.00;96997.06;7396375;19;20397;-93
2024/01/09 00:42:23;;;;;;;12.30;10.50;;;;;;;-6.02;100.00;96893.94;7394805;19;20870;-94
2024/01/09 00:45:23;;;;;;;14.83;7.70;;;;;;;-5.53;100.00;96964.00;7396043;19;20381;-93
2024/01/09 00:48:06;;;;;;;14.73;9.43;;;;;;;-5.86;100.00;96894.69;7394934;19;20396;-93
2024/01/09 00:50:48;;;;;;;7.90;7.10;;;;;;;-6.30;100.00;96844.50;7394846;19;20456;-94
2024/01/09 00:53:29;;;;;;;15.27;9.10;;;;;;;-6.33;100.00;96837.97;7394708;19;20445;-94
2024/01/09 00:56:11;;;;;;;12.47;9.80;;;;;;;-5.59;100.00;96962.19;7394402;19;20481;-95
2024/01/09 00:58:53;;;;;;;11.00;8.67;;;;;;;-5.50;100.00;96971.34;7394470;19;20403;-93
2024/01/09 01:01:39;;;;;;;13.93;8.97;;;;;;;-5.20;100.00;97007.84;7394451;19;20395;-92
2024/01/09 01:04:22;;;;;;;12.20;8.50;;;;;;;-5.64;100.00;96960.19;7395438;19;20396;-93
2024/01/09 01:07:03;;;;;;;13.63;8.10;;;;;;;-5.46;100.00;96958.00;7394837;19;20393;-94
2024/01/09 01:09:45;;;;;;;13.07;8.10;;;;;;;-5.79;100.00;96933.88;7395109;19;20392;-94
2024/01/09 01:12:28;;;;;;;8.63;6.20;;;;;;;-6.05;100.00;96889.19;7393719;19;20559;-93
2024/01/09 01:15:09;;;;;;;10.70;8.00;;;;;;;-5.95;100.00;96905.00;7394560;19;20444;-93
2024/01/09 01:17:53;;;;;;;15.60;8.63;;;;;;;-5.57;100.00;96942.34;7393124;19;20380;-93
2024/01/09 01:20:39;;;;;;;14.17;7.70;;;;;;;-5.39;100.00;96973.41;7395003;19;20375;-93
2024/01/09 01:23:35;;;;;;;15.27;8.60;;;;;;;-5.34;100.00;96987.25;7393348;19;20520;-92
2024/01/09 01:26:16;;;;;;;11.37;8.17;;;;;;;-5.37;100.00;96951.03;7394487;19;20390;-92
2024/01/09 01:29:01;;;;;;;8.03;6.03;;;;;;;-5.72;100.00;96916.88;7396563;19;20365;-93
2024/01/09 01:31:55;;;;;;;9.57;6.70;;;;;;;-5.04;100.00;97002.50;7401805;19;20377;-93
2024/01/09 01:34:39;;;;;;;13.47;8.33;;;;;;;-5.44;100.00;96914.34;7400720;19;20898;-95
2024/01/09 01:37:20;;;;;;;8.97;6.60;;;;;;;-5.14;100.00;96981.53;7400810;19;20377;-95
2024/01/09 01:40:03;;;;;;;15.67;8.93;;;;;;;-5.21;100.00;96961.00;7404731;19;20401;-95
2024/01/09 01:42:45;;;;;;;7.80;4.63;;;;;;;-5.71;100.00;96888.53;7403551;19;20392;-94
2024/01/09 01:45:27;;;;;;;7.80;7.03;;;;;;;-4.95;100.00;97015.97;7404735;19;20381;-93
2024/01/09 01:48:11;;;;;;;13.63;9.20;;;;;;;-5.91;100.00;96866.34;7403897;19;20866;-95
2024/01/09 01:50:53;;;;;;;10.10;6.77;;;;;;;-5.58;100.00;96898.09;7404392;19;20357;-94
2024/01/09 01:53:36;;;;;;;8.37;5.70;;;;;;;-6.33;100.00;96794.56;7400007;19;20428;-94
2024/01/09 01:56:19;;;;;;;8.20;5.20;;;;;;;-6.00;100.00;96851.13;7403897;19;20381;-94
2024/01/09 01:59:02;;;;;;;7.90;6.10;;;;;;;-4.92;100.00;97006.16;7403448;19;20850;-93
2024/01/09 02:01:46;;;;;;;8.83;6.40;;;;;;;-5.74;100.00;96873.59;7403047;19;20365;-93
2024/01/09 02:04:41;;;;;;;11.37;5.83;;;;;;;-5.04;100.00;96979.47;7404798;19;20378;-96
2024/01/09 02:07:28;;;;;;;15.73;7.60;;;;;;;-5.10;100.00;96965.66;7404220;19;20376;-94
2024/01/09 02:10:11;;;;;;;12.20;8.47;;;;;;;-5.12;100.00;96959.91;7403394;19;20912;-94
2024/01/09 02:12:53;;;;;;;7.17;6.30;;;;;;;-5.38;100.00;96924.66;7402673;19;20507;-93
2024/01/09 02:15:36;;;;;;;7.47;5.00;;;;;;;-6.05;100.00;96817.69;7405386;19;20385;-93
2024/01/09 02:18:23;;;;;;;11.60;7.60;;;;;;;-5.01;100.00;96997.00;7406947;19;20422;-92
2024/01/09 02:21:08;;;;;;;7.80;5.70;;;;;;;-5.15;100.00;96967.94;7405731;19;20353;-95
2024/01/09 02:23:50;;;;;;;6.20;4.07;;;;;;;-6.25;100.00;96798.78;7400326;19;20468;-92
2024/01/09 02:26:39;;;;;;;9.90;6.63;;;;;;;-4.96;100.00;96992.13;7402719;19;20384;-92
2024/01/09 02:29:22;;;;;;;10.20;5.40;;;;;;;-5.87;100.00;96855.59;7402508;19;20385;-93
2024/01/09 02:32:09;;;;;;;8.10;6.03;;;;;;;-5.20;100.00;96957.47;7402710;19;20478;-94
2024/01/09 02:34:52;;;;;;;11.70;6.53;;;;;;;-5.21;100.00;96966.13;7400866;19;20426;-95
2024/01/09 02:37:33;;;;;;;13.40;7.63;;;;;;;-6.33;100.00;96820.09;7400926;19;20381;-92
2024/01/09 02:40:15;;;;;;;9.47;6.40;;;;;;;-6.23;100.00;96828.28;7401912;19;20436;-94
2024/01/09 02:42:58;;;;;;;8.17;6.50;;;;;;;-5.11;100.00;96992.22;7400404;19;20393;-94
2024/01/09 02:45:40;;;;;;;9.50;6.70;;;;;;;-6.17;100.00;96838.75;7403471;19;20361;-92
2024/01/09 02:48:24;;;;;;;10.43;7.30;;;;;;;-5.17;100.00;97003.16;7431102;19;20369;-92
2024/01/09 02:51:06;;;;;;;13.23;8.40;;;;;;;-5.58;100.00;96940.78;7432400;19;20389;-93
2024/01/09 02:53:47;;;;;;;9.03;6.80;;;;;;;-6.39;100.00;96815.72;7430355;19;20400;-92
2024/01/09 02:56:29;;;;;;;10.90;8.50;;;;;;;-6.16;100.00;96842.91;7431183;19;20389;-93
2024/01/09 02:59:11;;;;;;;11.90;7.27;;;;;;;-5.30;100.00;96977.44;7431236;19;20393;-93
2024/01/09 03:01:53;;;;;;;9.63;7.03;;;;;;;-6.35;100.00;96811.84;7430540;19;20407;-92
2024/01/09 03:04:34;;;;;;;11.20;7.00;;;;;;;-6.27;100.00;96828.84;7402989;19;20846;-93
2024/01/09 03:07:16;;;;;;;13.50;7.50;;;;;;;-5.58;100.00;96941.56;7402313;19;20377;-92
2024/01/09 03:10:00;;;;;;;9.80;6.90;;;;;;;-6.27;100.00;96824.50;7402336;19;20384;-94
2024/01/09 03:12:43;;;;;;;12.80;8.57;;;;;;;-5.62;100.00;96925.00;7400277;19;20412;-93
2024/01/09 03:15:24;;;;;;;6.00;5.10;;;;;;;-6.23;100.00;96838.50;7401389;19;20400;-94
2024/01/09 03:18:08;;;;;;;6.27;5.27;;;;;;;-5.99;100.00;96864.69;7399365;19;20878;-93
2024/01/09 03:20:53;;;;;;;11.13;6.37;;;;;;;-5.47;100.00;96930.88;7401077;19;20377;-94
2024/01/09 03:23:36;;;;;;;9.60;6.43;;;;;;;-5.82;100.00;96883.13;7398799;19;20400;-96
2024/01/09 03:26:17;;;;;;;10.50;6.60;;;;;;;-5.75;100.00;96901.91;7400996;19;20440;-93
2024/01/09 03:28:59;;;;;;;9.67;7.17;;;;;;;-6.04;100.00;96844.03;7400872;19;20389;-94
2024/01/09 03:34:53;;;;;;;14.20;7.67;;;;;;;-5.11;100.00;96989.66;7403173;19;20370;-94
2024/01/09 03:43:51;;;;;;;8.07;7.27;;;;;;;-5.52;100.00;96925.47;7371650;19;20761;-93
2024/01/09 03:46:34;;;;;;;12.10;5.13;;;;;;;-5.05;100.00;97003.47;7400518;19;20458;-95
2024/01/09 03:49:15;;;;;;;14.83;9.20;;;;;;;-5.74;100.00;96900.91;7400230;19;20377;-92
2024/01/09 03:51:58;;;;;;;16.70;7.23;;;;;;;-5.96;100.00;96877.09;7398543;19;20713;-94
2024/01/09 03:54:44;;;;;;;10.97;7.33;;;;;;;-5.70;100.00;96905.44;7399413;19;20885;-92
2024/01/09 03:57:26;;;;;;;6.87;5.73;;;;;;;-5.99;100.00;96867.25;7398394;19;20886;-94
2024/01/09 04:00:21;;;;;;;12.13;6.07;;;;;;;-5.13;100.00;96998.47;7400369;19;20450;-95
2024/01/09 04:03:07;;;;;;;9.23;7.07;;;;;;;-6.05;100.00;96868.78;7398557;19;20433;-93
2024/01/09 04:05:49;;;;;;;12.53;7.07;;;;;;;-6.14;100.00;96838.41;7399168;19;20384;-93
2024/01/09 04:08:30;;;;;;;14.80;7.07;;;;;;;-5.66;100.00;96918.66;7399806;19;20452;-93
2024/01/09 04:11:40;;;;;;;5.53;4.83;;;;;;;-5.13;100.00;97019.72;7399489;19;20376;-94
2024/01/09 04:14:23;;;;;;;12.03;7.90;;;;;;;-5.64;100.00;96949.97;7399191;19;20397;-95
2024/01/09 04:17:04;;;;;;;9.07;7.13;;;;;;;-6.61;100.00;96798.78;7398508;19;20398;-94
2024/01/09 04:19:45;;;;;;;10.90;6.17;;;;;;;-5.50;100.00;96958.56;7399912;19;20456;-94
2024/01/09 04:22:27;;;;;;;10.27;7.23;;;;;;;-5.82;100.00;96903.59;7398515;19;20419;-94
2024/01/09 04:25:16;;;;;;;7.60;5.90;;;;;;;-5.40;100.00;96966.72;7399775;19;20376;-95
2024/01/09 04:27:59;;;;;;;11.70;7.20;;;;;;;-5.28;100.00;96995.16;7400413;19;20444;-95
2024/01/09 04:30:45;;;;;;;9.27;6.63;;;;;;;-6.29;100.00;96833.34;7399115;19;20400;-94
2024/01/09 04:33:29;;;;;;;12.60;6.43;;;;;;;-5.45;100.00;96966.47;7397228;19;20885;-93
2024/01/09 04:36:18;;;;;;;11.30;6.87;;;;;;;-5.31;100.00;96996.31;7398279;19;20387;-95
2024/01/09 04:39:02;;;;;;;9.90;8.00;;;;;;;-6.02;100.00;96882.94;7398516;19;20384;-94
2024/01/09 04:41:46;;;;;;;9.23;6.20;;;;;;;-5.81;100.00;96910.28;7399326;19;20444;-93
2024/01/09 04:44:29;;;;;;;7.73;6.33;;;;;;;-6.18;100.00;96847.38;7397144;19;20445;-93
2024/01/09 04:47:17;;;;;;;15.30;6.83;;;;;;;-5.75;100.00;96896.78;7398035;19;20865;-93
2024/01/09 04:49:58;;;;;;;8.20;5.93;;;;;;;-5.65;100.00;96933.00;7397915;19;20482;-94
2024/01/09 04:52:40;;;;;;;7.67;5.70;;;;;;;-5.67;100.00;96929.84;7396804;19;20408;-93
2024/01/09 04:55:26;;;;;;;5.53;3.90;;;;;;;-5.31;100.00;96988.66;7398507;19;20389;-96
2024/01/09 04:58:09;;;;;;;15.30;6.47;;;;;;;-6.09;100.00;96874.41;7397474;19;20385;-93
2024/01/09 05:00:50;;;;;;;8.93;6.97;;;;;;;-6.49;100.00;96807.56;7397753;19;20373;-94
2024/01/09 05:03:31;;;;;;;7.97;5.20;;;;;;;-6.59;100.00;96797.63;7394187;19;20397;-94
2024/01/09 05:06:12;;;;;;;11.50;6.10;;;;;;;-5.89;100.00;96918.06;7404278;19;20385;-94
2024/01/09 05:08:54;;;;;;;8.13;7.07;;;;;;;-5.74;100.00;96940.06;7398061;19;20450;-93
2024/01/09 05:11:36;;;;;;;16.27;8.20;;;;;;;-5.93;100.00;96894.63;7397569;19;20376;-93
2024/01/09 05:14:23;;;;;;;10.27;7.30;;;;;;;-5.51;100.00;96964.66;7397907;19;20380;-92
2024/01/09 05:17:05;;;;;;;9.87;6.47;;;;;;;-6.13;100.00;96888.50;7397379;19;20357;-94
2024/01/09 05:19:47;;;;;;;5.77;4.27;;;;;;;-5.80;100.00;96933.09;7407727;19;20377;-93
2024/01/09 05:22:30;;;;;;;9.97;7.73;;;;;;;-5.89;100.00;96912.94;7399734;19;20396;-93
2024/01/09 05:25:11;;;;;;;7.13;6.30;;;;;;;-6.86;100.00;96742.16;7401906;19;20357;-86
2024/01/09 05:27:52;;;;;;;7.33;5.60;;;;;;;-6.14;100.00;96853.72;7394870;19;20372;-89
2024/01/09 05:30:33;;;;;;;7.90;5.90;;;;;;;-5.46;100.00;96965.69;7395322;19;20405;-90
2024/01/09 05:33:15;;;;;;;12.20;6.70;;;;;;;-5.82;100.00;96895.91;7393983;19;20404;-90
2024/01/09 05:35:56;;;;;;;11.73;6.90;;;;;;;-6.05;100.00;96876.44;7395405;19;20383;-89
2024/01/09 05:38:37;;;;;;;8.43;6.03;;;;;;;-5.58;100.00;96928.00;7396197;19;20380;-89
2024/01/09 05:41:22;;;;;;;9.97;5.97;;;;;;;-6.02;100.00;96857.41;7395920;19;20380;-89
2024/01/09 05:44:03;;;;;;;9.70;6.03;;;;;;;-6.22;100.00;96846.94;7394398;19;20854;-90
2024/01/09 05:46:45;;;;;;;11.43;7.03;;;;;;;-5.59;100.00;96942.53;7395836;19;20400;-89
2024/01/09 05:49:26;;;;;;;16.93;8.43;;;;;;;-6.04;100.00;96861.91;7395130;19;20396;-88
2024/01/09 05:52:08;;;;;;;8.03;5.80;;;;;;;-5.94;100.00;96896.38;7394532;19;20412;-88
2024/01/09 05:54:49;;;;;;;9.37;5.93;;;;;;;-6.13;100.00;96855.31;7394845;19;20894;-88
2024/01/09 05:57:30;;;;;;;6.17;4.00;;;;;;;-5.79;100.00;96877.66;7394793;19;20400;-91
2024/01/09 06:00:12;;;;;;;7.93;6.63;;;;;;;-6.00;100.00;96846.03;7395478;19;20384;-89
2024/01/09 06:02:53;;;;;;;9.13;4.40;;;;;;;-5.68;100.00;96921.41;7393358;19;20409;-89
2024/01/09 06:05:34;;;;;;;7.20;6.50;;;;;;;-5.49;100.00;96949.91;7391096;19;20384;-87
2024/01/09 06:08:16;;;;;;;14.57;6.70;;;;;;;-5.85;100.00;96893.72;7395084;19;20376;-93
2024/01/09 06:10:57;;;;;;;10.73;5.87;;;;;;;-6.09;100.00;96862.41;7395327;19;20440;-93
2024/01/09 06:13:38;;;;;;;7.93;5.07;;;;;;;-5.50;100.00;96972.13;7393202;19;20401;-92
2024/01/09 06:19:03;;;;;;;13.03;7.03;;;;;;;-5.37;100.00;96972.28;7402915;19;20388;-93
2024/01/09 06:21:44;;;;;;;15.20;6.50;;;;;;;-5.60;100.00;96937.59;7401302;19;20373;-92
2024/01/09 06:24:25;;;;;;;8.60;6.60;;;;;;;-5.57;100.00;96953.38;7402311;19;20385;-92
2024/01/09 06:27:06;;;;;;;9.77;6.00;;;;;;;-5.13;100.00;97024.81;7400699;19;20392;-93
2024/01/09 06:29:48;;;;;;;7.10;3.83;;;;;;;-5.13;100.00;97026.59;7402455;19;20877;-94
2024/01/09 06:32:30;;;;;;;11.70;6.57;;;;;;;-5.92;100.00;96901.31;7401217;19;20392;-92
2024/01/09 06:35:11;;;;;;;17.70;7.77;;;;;;;-5.70;100.00;96933.56;7402210;19;20436;-91
2024/01/09 06:37:52;;;;;;;12.20;6.37;;;;;;;-6.20;100.00;96850.09;7401993;19;20393;-92
2024/01/09 06:40:33;;;;;;;10.73;7.00;;;;;;;-5.73;100.00;96926.28;7405019;19;20380;-93
2024/01/09 06:43:15;;;;;;;7.77;5.90;;;;;;;-5.65;100.00;96928.72;7400697;19;20436;-93
2024/01/09 06:45:56;;;;;;;9.17;6.77;;;;;;;-5.25;99.55;96994.78;7401825;19;20452;-91
2024/01/09 06:48:37;;;;;;;10.37;5.00;;;;;;;-5.48;97.96;96965.06;7402489;19;20385;-94
2024/01/09 06:51:18;;;;;;;9.73;5.93;;;;;;;-5.18;98.66;96998.22;7401077;19;20920;-94
2024/01/09 06:53:59;;;;;;;8.57;6.57;;;;;;;-5.23;96.73;97003.09;7402052;19;20411;-93
2024/01/09 06:56:44;;;;;;;9.60;6.30;;;;;;;-5.93;97.11;96874.19;7401963;19;20440;-94
2024/01/09 06:59:25;;;;;;;11.37;6.80;;;;;;;-5.70;96.32;96945.56;7401374;19;20400;-93
2024/01/09 07:02:08;;;;;;;12.30;6.73;;;;;;;-5.16;95.32;96999.63;7403706;19;20487;-94
2024/01/09 07:04:49;;;;;;;7.40;5.50;;;;;;;-5.76;95.57;96908.78;7407531;19;20380;-92
2024/01/09 07:07:30;;;;;;;10.57;6.50;;;;;;;-6.14;95.15;96853.72;7403998;19;20687;-93
2024/01/09 07:10:12;;;;;;;9.57;6.10;;;;;;;-6.10;95.31;96886.38;7404335;19;20365;-90
2024/01/09 07:12:53;;;;;;;13.47;6.93;;;;;;;-5.75;95.33;96920.56;7402902;19;20405;-91
2024/01/09 07:15:36;;;;;;;9.00;6.70;;;;;;;-5.29;94.55;96986.69;7405214;19;20444;-91
2024/01/09 07:18:17;;;;;;;8.23;6.23;;;;;;;-6.10;94.13;96850.63;7404663;19;20395;-91
2024/01/09 07:20:59;;;;;;;10.73;7.87;;;;;;;-5.17;94.07;97000.59;7403146;19;20364;-94
2024/01/09 07:23:41;;;;;;;10.57;6.43;;;;;;;-6.16;93.99;96866.69;7402503;19;20405;-93
2024/01/09 07:26:22;;;;;;;6.77;6.00;;;;;;;-5.56;91.58;96939.59;7402389;19;20397;-92
2024/01/09 07:29:03;;;;;;;6.60;4.90;;;;;;;-6.10;88.95;96827.63;7403663;19;20368;-92
2024/01/09 07:31:44;;;;;;;8.80;6.03;;;;;;;-6.01;90.13;96852.09;7401975;19;20394;-93
2024/01/09 07:34:25;;;;;;;9.90;6.53;;;;;;;-5.86;88.54;96869.94;7406265;19;20377;-91
2024/01/09 07:37:06;;;;;;;12.23;6.40;;;;;;;-5.55;88.96;96912.28;7404207;19;20404;-93
2024/01/09 07:39:48;;;;;;;8.40;4.90;;;;;;;-5.01;87.60;96980.84;7403516;19;20934;-93
2024/01/09 07:42:29;;;;;;;6.57;4.97;;;;;;;-5.86;87.49;96861.47;7402946;19;20442;-91
2024/01/09 07:45:11;;;;;;;10.10;5.40;;;;;;;-5.25;86.58;96944.44;7403362;19;20364;-90
2024/01/09 07:47:52;;;;;;;9.80;5.80;;;;;;;-5.10;86.36;96978.44;7403340;19;20368;-92
2024/01/09 07:50:33;;;;;;;9.03;6.30;;;;;;;-5.69;86.15;96884.03;7408542;19;20385;-91
2024/01/09 07:53:14;;;;;;;6.63;5.60;;;;;;;-5.50;85.95;96913.34;7409642;19;20396;-90
2024/01/09 07:55:55;;;;;;;16.53;5.60;;;;;;;-5.13;85.46;96950.63;7407431;19;20385;-90
2024/01/09 07:58:36;;;;;;;9.93;6.20;;;;;;;-5.25;85.81;96921.41;7408879;19;20393;-89
2024/01/09 08:01:18;;;;;;;7.10;4.90;;;;;;;-5.35;84.19;96919.19;7403979;19;20369;-91
2024/01/09 08:03:59;;;;;;;8.73;5.43;;;;;;;-5.06;83.81;96953.28;7402472;19;20460;-93
2024/01/09 08:06:41;;;;;;;6.33;5.73;;;;;;;-5.50;83.16;96874.19;7405196;19;20405;-91
2024/01/09 08:09:22;;;;;;;10.20;5.53;;;;;;;-5.01;82.95;96947.59;7406363;19;20372;-91
2024/01/09 08:12:03;;;;;;;6.57;4.10;;;;;;;-5.16;82.52;96919.53;7410852;19;20428;-89
2024/01/09 08:14:44;;;;;;;9.70;6.27;;;;;;;-5.28;82.19;96905.66;7407231;19;20409;-90
2024/01/09 08:17:26;;;;;;;10.73;5.43;;;;;;;-4.52;81.14;96975.75;7401149;19;20397;-91
2024/01/09 08:20:08;;;;;;;11.60;6.00;;;;;;;-4.07;78.73;97053.88;7410217;19;20392;-90
2024/01/09 08:22:49;;;;;;;12.00;5.87;;;;;;;-4.85;77.65;96916.59;7409205;19;20408;-90
2024/01/09 08:25:30;;;;;;;6.70;5.33;;;;;;;-4.30;77.53;96987.53;7412987;19;20455;-92
2024/01/09 08:28:11;;;;;;;5.27;4.37;;;;;;;-4.35;75.87;96948.84;7410033;19;20376;-90
2024/01/09 08:30:53;;;;;;;10.70;5.40;;;;;;;-4.09;74.78;96985.84;7400548;19;20379;-92
2024/01/09 08:33:34;;;;;;;7.93;5.43;;;;;;;-4.38;73.75;96938.19;7398520;19;20409;-91
2024/01/09 08:36:16;;;;;;;7.93;6.30;;;;;;;-4.48;73.50;96926.50;7399899;19;20385;-91
2024/01/09 08:38:57;;;;;;;5.23;4.23;;;;;;;-3.71;72.40;97027.25;7398978;19;20375;-91
2024/01/09 08:41:40;;;;;;;8.90;5.20;;;;;;;-4.19;72.27;96940.06;7398887;19;20380;-91
2024/01/09 08:44:22;;;;;;;8.10;5.90;;;;;;;-4.30;71.78;96915.00;7397828;19;20405;-92
2024/01/09 08:47:03;;;;;;;9.37;5.83;;;;;;;-4.01;70.38;96948.06;7398873;19;20884;-90
2024/01/09 08:49:44;;;;;;;8.70;4.80;;;;;;;-4.17;70.03;96920.19;7399961;19;20377;-91
2024/01/09 08:52:26;;;;;;;5.13;4.50;;;;;;;-3.85;69.14;96963.13;7398664;19;20452;-92
2024/01/09 08:55:07;;;;;;;6.07;4.53;;;;;;;-3.50;69.29;97006.63;7399539;19;20389;-91
2024/01/09 08:57:49;;;;;;;8.50;5.90;;;;;;;-4.46;68.75;96862.28;7399217;19;20383;-89
2024/01/09 09:00:30;;;;;;;9.43;5.43;;;;;;;-3.63;67.51;96968.91;7399624;19;20907;-92
2024/01/09 09:03:11;;;;;;;6.20;4.27;;;;;;;-3.00;67.81;97069.53;7398569;19;20706;-91
2024/01/09 09:05:53;;;;;;;6.20;4.50;;;;;;;-3.49;68.10;96995.38;7399047;19;20369;-90
2024/01/09 09:08:34;;;;;;;6.40;5.00;;;;;;;-3.82;67.53;96938.03;7395517;19;20849;-92
2024/01/09 09:11:22;;;;;;;7.90;4.13;;;;;;;-3.49;67.37;96974.06;7401781;19;20658;-91
2024/01/09 09:14:03;;;;;;;5.67;4.90;;;;;;;-3.65;66.48;96942.63;7399347;19;20353;-92
2024/01/09 09:16:44;;;;;;;7.17;5.87;;;;;;;-3.50;64.93;96970.72;7397011;19;20400;-90
2024/01/09 09:19:27;;;;;;;5.13;4.13;;;;;;;-2.93;64.29;97018.22;7397215;19;20380;-90
2024/01/09 09:22:08;;;;;;;8.43;5.40;;;;;;;-2.80;63.31;97025.16;7396263;19;20403;-90
2024/01/09 09:24:51;;;;;;;9.30;5.80;;;;;;;-2.73;62.31;97054.19;7399181;19;20381;-91
2024/01/09 09:27:32;;;;;;;5.07;4.27;;;;;;;-2.61;61.46;97052.63;7399387;19;20696;-91
2024/01/09 09:30:14;;;;;;;9.73;4.17;;;;;;;-2.90;61.64;97002.41;7398520;19;20372;-91
2024/01/09 09:32:58;;;;;;;6.83;4.70;;;;;;;-2.89;61.80;96988.59;7397794;19;20396;-91
2024/01/09 09:35:39;;;;;;;4.23;3.80;;;;;;;-2.91;60.99;96972.59;7399024;19;20381;-91
2024/01/09 09:38:22;;;;;;;5.40;3.93;;;;;;;-2.88;61.41;96990.16;7418735;19;20389;-90
2024/01/09 09:41:07;;;;;;;7.60;5.03;;;;;;;-2.75;61.79;97007.38;7427379;19;20376;-88
2024/01/09 09:44:13;;;;;;;7.00;5.50;;;;;;;-2.37;60.52;97053.84;7414333;19;20812;-90
2024/01/09 09:46:56;;;;;;;5.97;4.90;;;;;;;-2.54;60.98;97034.66;7409682;19;20384;-91
2024/01/09 09:49:38;;;;;;;7.73;5.27;;;;;;;-3.04;61.45;96941.78;7398560;19;20389;-90
2024/01/09 09:52:22;;;;;;;9.97;4.60;;;;;;;-2.86;61.29;96980.50;7404668;19;20436;-92
2024/01/09 09:55:05;;;;;;;7.13;4.67;;;;;;;-2.78;60.93;96964.09;7405749;19;20357;-90
2024/01/09 09:57:46;;;;;;;5.70;5.20;;;;;;;-2.33;60.26;97056.78;7405291;19;20381;-91
2024/01/09 10:00:27;;;;;;;4.40;4.00;;;;;;;-2.37;60.52;97018.63;7405464;19;20448;-91
2024/01/09 10:03:11;;;;;;;5.57;4.13;;;;;;;-3.41;59.68;96868.69;7404081;19;20385;-92
2024/01/09 10:05:54;;;;;;;9.40;5.70;;;;;;;-1.96;60.08;97094.75;7407037;19;20408;-90
2024/01/09 10:08:36;;;;;;;8.00;4.73;;;;;;;-2.59;61.11;96965.09;7403130;19;20392;-90
2024/01/09 10:11:21;;;;;;;7.30;4.57;;;;;;;-2.28;60.31;97011.53;7404953;19;20720;-90
2024/01/09 10:14:04;;;;;;;4.80;3.33;;;;;;;-2.08;60.06;97025.13;7404548;19;20373;-91
2024/01/09 10:16:50;;;;;;;8.47;4.63;;;;;;;-2.27;59.92;96989.97;7406233;19;20364;-89
2024/01/09 10:19:31;;;;;;;5.33;4.10;;;;;;;-2.31;60.17;96955.38;7407840;19;20353;-91
2024/01/09 10:22:12;;;;;;;5.47;4.77;;;;;;;-2.08;59.95;97014.06;7403959;19;20724;-92
2024/01/09 10:24:54;;;;;;;6.80;5.30;;;;;;;-2.22;60.23;96961.88;7405208;19;20393;-90
2024/01/09 10:27:36;;;;;;;10.67;5.53;;;;;;;-1.47;60.50;97060.81;7402782;19;20372;-92
2024/01/09 10:30:19;;;;;;;6.33;4.63;;;;;;;-1.73;59.62;97022.31;7403953;19;20388;-91
2024/01/09 10:33:13;;;;;;;7.00;4.63;;;;;;;-1.38;58.64;97061.34;7402296;19;20415;-92
2024/01/09 10:35:54;;;;;;;5.23;4.13;;;;;;;-2.24;59.13;96916.81;7404620;19;20441;-90
2024/01/09 10:38:35;;;;;;;7.70;4.37;;;;;;;-2.00;59.03;96933.34;7404125;19;20846;-90
2024/01/09 10:41:20;;;;;;;6.67;4.70;;;;;;;-1.13;58.43;97058.06;7403533;19;20381;-90
2024/01/09 10:44:02;;;;;;;4.27;3.87;;;;;;;-1.19;58.01;97031.38;7402447;19;20386;-90
2024/01/09 10:46:45;;;;;;;8.17;4.80;;;;;;;-1.85;58.69;96910.75;7404462;19;20361;-91
2024/01/09 10:49:28;;;;;;;5.07;3.60;;;;;;;-1.50;56.58;96962.66;7403649;19;20377;-91
2024/01/09 10:52:16;;;;;;;9.07;4.53;;;;;;;-1.02;56.64;97042.75;7404228;19;20396;-91
2024/01/09 10:55:05;;;;;;;8.20;4.90;;;;;;;-1.57;56.12;96944.66;7404088;19;20373;-91
2024/01/09 10:57:48;;;;;;;6.50;4.67;;;;;;;-1.76;55.72;96906.94;7403586;19;20377;-91
2024/01/09 11:00:30;;;;;;;6.13;3.90;;;;;;;-1.59;56.06;96928.63;7403552;19;20391;-91
2024/01/09 11:03:11;;;;;;;7.50;4.30;;;;;;;-1.81;55.51;96892.09;7400477;19;20397;-91
2024/01/09 11:06:02;;;;;;;6.43;4.70;;;;;;;-1.67;55.37;96890.25;7405778;19;20690;-89
2024/01/09 11:08:51;;;;;;;5.97;4.37;;;;;;;-0.93;55.32;96995.16;7404765;19;20385;-90
2024/01/09 11:11:36;;;;;;;6.70;4.73;;;;;;;-1.04;55.39;96980.38;7415476;19;20357;-91
2024/01/09 11:14:26;;;;;;;4.70;3.90;;;;;;;-1.04;54.50;96943.53;7419725;19;20336;-91
2024/01/09 11:17:10;;;;;;;4.07;3.00;;;;;;;-1.26;53.02;96927.63;7415323;19;20381;-91
2024/01/09 11:19:51;;;;;;;4.37;3.40;;;;;;;-1.32;53.22;96918.16;7414642;19;20456;-91
2024/01/09 11:22:39;;;;;;;3.73;3.20;;;;;;;-1.59;52.49;96869.44;7416239;19;20408;-92
2024/01/09 11:25:24;;;;;;;4.93;3.90;;;;;;;-1.05;52.70;96954.81;7414233;19;20386;-91
2024/01/09 11:28:07;;;;;;;7.80;4.20;;;;;;;-0.71;53.77;96979.34;7425356;19;20409;-87
2024/01/09 11:30:50;;;;;;;7.30;3.50;;;;;;;-0.97;53.01;96924.47;7427775;19;20441;-88
2024/01/09 11:33:32;;;;;;;6.50;3.33;;;;;;;-0.16;52.75;97026.72;7426619;19;20400;-86
2024/01/09 11:36:24;;;;;;;8.77;5.10;;;;;;;-0.93;53.37;96910.16;7428232;19;20385;-87
2024/01/09 11:39:07;;;;;;;6.77;3.60;;;;;;;-0.65;52.48;96958.69;7427665;19;20389;-86
2024/01/09 11:41:49;;;;;;;4.63;3.93;;;;;;;-0.65;52.35;96963.06;7427124;19;20417;-87
2024/01/09 11:44:31;;;;;;;4.57;4.20;;;;;;;-0.65;52.25;96953.53;7424036;19;20411;-86
2024/01/09 11:47:12;;;;;;;6.80;4.10;;;;;;;-0.51;52.60;96971.47;7421541;19;20369;-90
2024/01/09 11:50:05;;;;;;;9.93;5.30;;;;;;;-1.18;52.37;96875.88;7406095;19;20762;-90
2024/01/09 11:52:49;;;;;;;4.60;3.80;;;;;;;-0.31;52.53;97003.84;7404708;19;20381;-90
2024/01/09 11:55:30;;;;;;;7.03;5.00;;;;;;;-0.74;52.46;96913.56;7404116;19;20378;-91
2024/01/09 11:58:12;;;;;;;5.53;4.63;;;;;;;-0.75;52.81;96906.84;7404593;19;20472;-91
2024/01/09 12:00:53;;;;;;;6.63;4.17;;;;;;;-0.11;53.82;96995.91;7404302;19;20390;-90
2024/01/09 12:03:34;;;;;;;5.17;4.50;;;;;;;-1.09;52.58;96863.53;7403123;19;20404;-90
2024/01/09 12:06:16;;;;;;;5.50;4.40;;;;;;;-1.81;51.86;96742.94;7404273;19;20460;-90
2024/01/09 12:08:57;;;;;;;3.63;3.33;;;;;;;-0.04;52.26;96980.34;7403935;19;20380;-90
2024/01/09 12:11:40;;;;;;;4.23;3.67;;;;;;;-0.69;52.17;96884.59;7402130;19;20729;-90
2024/01/09 12:14:22;;;;;;;6.53;4.20;;;;;;;0.00;51.71;96990.03;7401424;19;20392;-90
2024/01/09 12:17:24;;;;;;;4.23;3.83;;;;;;;-0.85;51.69;96855.00;7402114;19;20373;-90
2024/01/09 12:20:06;;;;;;;5.53;3.70;;;;;;;-0.96;51.86;96833.31;7402645;19;20380;-91
2024/01/09 12:22:47;;;;;;;7.27;5.60;;;;;;;-0.87;51.98;96834.59;7401238;19;20907;-90
2024/01/09 12:25:29;;;;;;;6.30;3.73;;;;;;;-0.58;52.18;96871.00;7402529;19;20392;-91
2024/01/09 12:28:11;;;;;;;5.20;4.20;;;;;;;-0.64;52.54;96864.91;7401787;19;20367;-90
2024/01/09 12:30:54;;;;;;;6.20;5.70;;;;;;;-0.98;52.26;96809.53;7402278;19;20369;-90
2024/01/09 12:33:37;;;;;;;3.90;3.60;;;;;;;-0.85;51.69;96832.59;7401434;19;20388;-91
2024/01/09 12:36:18;;;;;;;7.73;4.90;;;;;;;-0.70;51.63;96870.94;7402576;19;20381;-91
2024/01/09 12:39:00;;;;;;;7.90;4.87;;;;;;;0.08;52.25;96970.91;7402628;19;20365;-90
2024/01/09 12:41:42;;;;;;;7.40;4.67;;;;;;;-0.44;51.96;96918.88;7401665;19;20389;-90
2024/01/09 12:44:24;;;;;;;8.03;5.30;;;;;;;-0.65;51.51;96865.13;7400417;19;20381;-90
2024/01/09 12:47:14;;;;;;;7.10;4.10;;;;;;;-1.69;50.95;96693.38;7402649;19;20401;-91
2024/01/09 12:49:56;;;;;;;6.23;4.70;;;;;;;-0.71;51.62;96845.34;7400709;19;20372;-91
2024/01/09 12:52:37;;;;;;;4.50;4.10;;;;;;;-0.82;51.16;96831.41;7399211;19;20405;-91